createdAt,value
2022-09-20T00:00:10.973Z,92.86
2022-09-20T00:01:11.028Z,92.91
2022-09-20T00:02:10.950Z,93.12
2022-09-20T00:03:10.961Z,92.91
2022-09-20T00:04:10.942Z,93.01
2022-09-20T00:05:11.016Z,92.97
2022-09-20T00:06:10.927Z,93.32
2022-09-20T00:07:10.940Z,93.52
2022-09-20T00:08:10.918Z,93.73
2022-09-20T00:09:10.906Z,93.63
2022-09-20T00:10:10.901Z,93.42
2022-09-20T00:11:10.892Z,93.32
2022-09-20T00:12:10.912Z,93.32
2022-09-20T00:13:10.892Z,93.01
2022-09-20T00:14:10.880Z,93.32
2022-09-20T00:15:10.858Z,93.63
2022-09-20T00:16:10.910Z,93.83
2022-09-20T00:17:10.876Z,94.04
2022-09-20T00:18:10.843Z,94.29
2022-09-20T00:19:10.865Z,94.45
2022-09-20T00:20:10.837Z,94.39
2022-09-20T00:21:10.827Z,94.70
2022-09-20T00:22:10.846Z,94.24
2022-09-20T00:23:10.817Z,93.98
2022-09-20T00:24:10.828Z,93.93
2022-09-20T00:25:10.834Z,94.39
2022-09-20T00:26:10.811Z,94.34
2022-09-20T00:27:10.782Z,94.18
2022-09-20T00:29:28.489Z,94.39
2022-09-20T00:30:28.542Z,94.18
2022-09-20T00:31:28.529Z,94.39
2022-09-20T00:32:28.512Z,94.70
2022-09-20T00:33:28.506Z,94.59
2022-09-20T00:34:28.494Z,94.80
2022-09-20T00:35:28.489Z,94.80
2022-09-20T00:36:28.509Z,94.59
2022-09-20T00:37:28.483Z,94.80
2022-09-20T00:38:28.481Z,94.59
2022-09-20T00:39:28.487Z,94.80
2022-09-20T00:40:28.512Z,94.70
2022-09-20T00:41:28.464Z,94.70
2022-09-20T00:42:28.479Z,94.90
2022-09-20T00:43:28.450Z,94.59
2022-09-20T00:44:28.442Z,94.90
2022-09-20T00:45:28.478Z,95.01
2022-09-20T00:46:28.438Z,94.90
2022-09-20T00:47:28.431Z,95.10
2022-09-20T00:48:28.450Z,95.01
2022-09-20T00:49:28.410Z,94.80
2022-09-20T00:50:28.425Z,94.90
2022-09-20T00:51:28.392Z,95.10
2022-09-20T00:52:28.418Z,94.80
2022-09-20T00:53:28.392Z,95.10
2022-09-20T00:54:28.392Z,94.90
2022-09-20T00:55:28.377Z,94.55
2022-09-20T00:56:28.379Z,94.65
2022-09-20T00:57:28.362Z,94.45
2022-09-20T00:58:28.389Z,94.55
2022-09-20T00:59:28.348Z,94.55
2022-09-20T01:00:28.331Z,94.45
2022-09-20T01:01:28.366Z,94.85
2022-09-20T01:02:28.345Z,94.45
2022-09-20T01:03:28.307Z,94.24
2022-09-20T01:04:28.334Z,94.65
2022-09-20T01:05:28.314Z,94.76
2022-09-20T01:06:28.314Z,94.55
2022-09-20T01:07:28.288Z,94.96
2022-09-20T01:08:28.274Z,94.76
2022-09-20T01:09:28.274Z,95.06
2022-09-20T01:10:28.268Z,94.85
2022-09-20T01:11:28.253Z,94.85
2022-09-20T01:12:28.279Z,94.65
2022-09-20T01:13:28.241Z,94.55
2022-09-20T01:14:28.241Z,94.45
2022-09-20T01:15:28.261Z,94.14
2022-09-20T01:16:28.279Z,94.14
2022-09-20T01:17:28.216Z,94.24
2022-09-20T01:18:28.208Z,93.52
2022-09-20T01:19:28.196Z,94.04
2022-09-20T01:20:28.210Z,94.34
2022-09-20T01:21:28.213Z,94.34
2022-09-20T01:22:28.188Z,94.14
2022-09-20T01:23:28.192Z,93.83
2022-09-20T01:24:28.172Z,93.89
2022-09-20T01:25:28.159Z,94.14
2022-09-20T01:26:28.154Z,94.14
2022-09-20T01:27:28.158Z,94.45
2022-09-20T01:28:28.171Z,94.65
2022-09-20T01:29:28.142Z,94.55
2022-09-20T01:30:28.128Z,94.45
2022-09-20T01:31:28.268Z,94.34
2022-09-20T01:32:28.145Z,94.65
2022-09-20T01:33:28.110Z,94.85
2022-09-20T01:34:28.111Z,94.65
2022-09-20T01:35:28.098Z,94.34
2022-09-20T01:36:28.094Z,94.20
2022-09-20T01:37:28.099Z,94.34
2022-09-20T01:38:28.093Z,93.89
2022-09-20T01:39:28.076Z,93.93
2022-09-20T01:40:28.145Z,93.99
2022-09-20T01:41:28.071Z,94.40
2022-09-20T01:42:28.096Z,94.65
2022-09-20T01:43:28.048Z,94.65
2022-09-20T01:44:28.052Z,94.45
2022-09-20T01:45:28.081Z,94.20
2022-09-20T01:46:28.025Z,93.89
2022-09-20T01:47:28.052Z,94.20
2022-09-20T01:48:28.040Z,94.20
2022-09-20T01:49:28.019Z,94.10
2022-09-20T01:50:28.033Z,94.10
2022-09-20T01:51:28.007Z,94.40
2022-09-20T01:52:28.031Z,94.20
2022-09-20T01:53:28.001Z,94.30
2022-09-20T01:54:27.989Z,94.71
2022-09-20T01:55:27.986Z,94.10
2022-09-20T01:56:27.975Z,94.10
2022-09-20T01:57:27.967Z,94.51
2022-09-20T01:58:27.984Z,94.61
2022-09-20T01:59:28.294Z,94.51
2022-09-20T02:00:27.976Z,94.40
2022-09-20T02:01:27.974Z,94.30
2022-09-20T02:02:27.979Z,94.71
2022-09-20T02:03:27.930Z,94.30
2022-09-20T02:04:27.923Z,94.61
2022-09-20T02:05:27.924Z,94.92
2022-09-20T02:06:27.937Z,94.61
2022-09-20T02:07:27.905Z,94.51
2022-09-20T02:08:27.906Z,94.51
2022-09-20T02:09:27.925Z,94.71
2022-09-20T02:10:27.893Z,94.71
2022-09-20T02:11:27.892Z,94.61
2022-09-20T02:12:33.261Z,94.71
2022-09-20T02:13:27.895Z,94.61
2022-09-20T02:14:27.871Z,94.81
2022-09-20T02:15:27.852Z,94.40
2022-09-20T02:16:27.889Z,94.15
2022-09-20T02:17:27.846Z,94.36
2022-09-20T02:18:27.843Z,94.71
2022-09-20T02:19:27.865Z,94.05
2022-09-20T02:20:27.830Z,94.26
2022-09-20T02:21:27.823Z,94.40
2022-09-20T02:22:27.820Z,94.51
2022-09-20T02:23:27.807Z,94.56
2022-09-20T02:24:27.817Z,94.26
2022-09-20T02:25:27.829Z,93.95
2022-09-20T02:26:27.795Z,94.30
2022-09-20T02:27:27.790Z,94.05
2022-09-20T02:28:27.785Z,94.56
2022-09-20T02:29:27.771Z,94.56
2022-09-20T02:30:27.776Z,94.81
2022-09-20T02:31:27.836Z,95.12
2022-09-20T02:32:27.765Z,95.02
2022-09-20T02:33:27.750Z,95.12
2022-09-20T02:34:27.756Z,95.32
2022-09-20T02:35:27.740Z,95.27
2022-09-20T02:36:27.737Z,95.23
2022-09-20T02:37:27.760Z,95.02
2022-09-20T02:38:27.723Z,94.20
2022-09-20T02:39:27.724Z,94.20
2022-09-20T02:40:27.762Z,93.99
2022-09-20T02:41:27.706Z,93.99
2022-09-20T02:42:27.702Z,94.20
2022-09-20T02:43:27.719Z,94.34
2022-09-20T02:44:27.690Z,94.10
2022-09-20T02:45:27.755Z,93.93
2022-09-20T02:46:27.699Z,94.04
2022-09-20T02:47:27.676Z,94.24
2022-09-20T02:48:27.683Z,94.24
2022-09-20T02:49:27.680Z,94.24
2022-09-20T02:50:27.664Z,93.93
2022-09-20T02:51:27.659Z,93.93
2022-09-20T02:52:27.653Z,94.34
2022-09-20T02:53:27.648Z,94.49
2022-09-20T02:54:27.635Z,94.45
2022-09-20T02:55:27.651Z,94.14
2022-09-20T02:56:27.624Z,94.14
2022-09-20T02:57:27.634Z,94.24
2022-09-20T02:58:27.604Z,94.08
2022-09-20T02:59:27.606Z,94.08
2022-09-20T03:00:27.594Z,93.67
2022-09-20T03:01:27.659Z,93.26
2022-09-20T03:02:27.644Z,93.77
2022-09-20T03:03:27.589Z,93.87
2022-09-20T03:04:27.596Z,94.18
2022-09-20T03:05:27.569Z,94.49
2022-09-20T03:06:27.559Z,94.49
2022-09-20T03:07:27.563Z,94.64
2022-09-20T03:08:27.554Z,94.39
2022-09-20T03:09:27.547Z,94.84
2022-09-20T03:10:27.564Z,95.46
2022-09-20T03:11:27.539Z,95.56
2022-09-20T03:12:27.533Z,95.36
2022-09-20T03:13:27.520Z,95.56
2022-09-20T03:14:27.519Z,95.77
2022-09-20T03:15:27.521Z,96.02
2022-09-20T03:16:27.621Z,96.33
2022-09-20T03:17:27.506Z,96.18
2022-09-20T03:18:27.497Z,95.97
2022-09-20T03:19:27.514Z,96.08
2022-09-20T03:20:27.486Z,96.08
2022-09-20T03:21:27.476Z,96.18
2022-09-20T03:22:27.477Z,95.77
2022-09-20T03:23:27.469Z,95.87
2022-09-20T03:24:27.466Z,95.87
2022-09-20T03:25:27.481Z,95.67
2022-09-20T03:26:27.449Z,95.97
2022-09-20T03:27:27.445Z,95.77
2022-09-20T03:28:27.468Z,95.97
2022-09-20T03:29:27.435Z,95.87
2022-09-20T03:30:27.431Z,96.28
2022-09-20T03:31:27.444Z,96.08
2022-09-20T03:32:27.421Z,96.08
2022-09-20T03:33:27.432Z,95.15
2022-09-20T03:34:27.406Z,95.25
2022-09-20T03:35:27.398Z,95.10
2022-09-20T03:36:27.411Z,95.97
2022-09-20T03:37:27.389Z,95.56
2022-09-20T03:38:27.382Z,95.25
2022-09-20T03:39:27.386Z,95.36
2022-09-20T03:40:27.449Z,95.56
2022-09-20T03:41:27.361Z,95.42
2022-09-20T03:42:27.354Z,95.87
2022-09-20T03:43:27.361Z,95.77
2022-09-20T03:44:27.376Z,95.56
2022-09-20T03:45:27.392Z,95.10
2022-09-20T03:46:27.343Z,95.25
2022-09-20T03:47:27.339Z,95.46
2022-09-20T03:48:27.323Z,94.59
2022-09-20T03:49:27.310Z,94.59
2022-09-20T03:50:27.333Z,94.80
2022-09-20T03:51:31.617Z,94.70
2022-09-20T03:52:28.296Z,94.59
2022-09-20T03:53:27.296Z,94.70
2022-09-20T03:54:27.289Z,94.59
2022-09-20T03:55:27.277Z,94.64
2022-09-20T03:56:27.286Z,94.43
2022-09-20T03:57:27.269Z,94.90
2022-09-20T03:58:27.258Z,94.39
2022-09-20T03:59:27.247Z,94.49
2022-09-20T04:00:27.253Z,94.74
2022-09-20T04:01:27.255Z,94.95
2022-09-20T04:02:27.329Z,94.80
2022-09-20T04:03:27.228Z,94.70
2022-09-20T04:04:27.224Z,94.43
2022-09-20T04:05:27.217Z,94.43
2022-09-20T04:06:27.223Z,95.36
2022-09-20T04:07:27.204Z,95.05
2022-09-20T04:08:27.245Z,95.36
2022-09-20T04:09:27.199Z,95.56
2022-09-20T04:10:27.190Z,95.46
2022-09-20T04:11:27.189Z,95.15
2022-09-20T04:12:27.175Z,95.36
2022-09-20T04:13:27.169Z,94.74
2022-09-20T04:14:27.193Z,94.95
2022-09-20T04:15:27.166Z,94.49
2022-09-20T04:16:27.214Z,94.08
2022-09-20T04:17:27.144Z,93.98
2022-09-20T04:18:27.143Z,94.23
2022-09-20T04:19:30.936Z,94.43
2022-09-20T04:20:28.151Z,94.49
2022-09-20T04:21:27.124Z,94.39
2022-09-20T04:22:27.122Z,93.98
2022-09-20T04:23:27.116Z,93.67
2022-09-20T04:24:27.122Z,93.98
2022-09-20T04:25:27.117Z,93.77
2022-09-20T04:26:27.096Z,93.57
2022-09-20T04:27:27.080Z,93.57
2022-09-20T04:28:27.078Z,93.67
2022-09-20T04:29:27.074Z,93.77
2022-09-20T04:30:27.060Z,94.08
2022-09-20T04:31:27.148Z,94.29
2022-09-20T04:32:27.097Z,93.98
2022-09-20T04:33:27.054Z,93.77
2022-09-20T04:34:27.042Z,94.08
2022-09-20T04:35:27.036Z,93.98
2022-09-20T04:36:27.034Z,93.77
2022-09-20T04:37:27.063Z,93.87
2022-09-20T04:38:27.015Z,94.08
2022-09-20T04:39:27.023Z,94.08
2022-09-20T04:40:27.042Z,94.08
2022-09-20T04:41:27.009Z,94.08
2022-09-20T04:42:26.991Z,94.18
2022-09-20T04:43:27.005Z,94.39
2022-09-20T04:44:26.980Z,94.08
2022-09-20T04:45:27.145Z,94.08
2022-09-20T04:46:27.076Z,94.49
2022-09-20T04:47:26.987Z,94.08
2022-09-20T04:48:26.981Z,93.57
2022-09-20T04:49:26.951Z,93.57
2022-09-20T04:50:26.948Z,93.46
2022-09-20T04:51:26.955Z,93.46
2022-09-20T04:52:26.938Z,93.36
2022-09-20T04:53:26.930Z,93.46
2022-09-20T04:54:26.928Z,93.98
2022-09-20T04:55:26.921Z,94.18
2022-09-20T04:56:26.920Z,94.49
2022-09-20T04:57:26.894Z,94.49
2022-09-20T04:58:26.899Z,94.70
2022-09-20T04:59:26.911Z,94.70
2022-09-20T05:00:26.880Z,94.59
2022-09-20T05:01:31.626Z,94.64
2022-09-20T05:02:27.950Z,94.70
2022-09-20T05:03:26.883Z,94.64
2022-09-20T05:04:26.871Z,94.39
2022-09-20T05:05:26.899Z,94.49
2022-09-20T05:06:26.874Z,94.54
2022-09-20T05:07:26.871Z,94.29
2022-09-20T05:08:26.850Z,94.49
2022-09-20T05:09:26.861Z,94.23
2022-09-20T05:10:26.842Z,94.49
2022-09-20T05:11:26.832Z,94.54
2022-09-20T05:12:26.827Z,94.74
2022-09-20T05:13:26.803Z,94.59
2022-09-20T05:14:26.863Z,94.29
2022-09-20T05:15:26.789Z,94.29
2022-09-20T05:16:26.848Z,94.18
2022-09-20T05:17:26.774Z,94.18
2022-09-20T05:18:26.772Z,94.18
2022-09-20T05:19:26.788Z,93.98
2022-09-20T05:20:26.779Z,94.02
2022-09-20T05:21:26.771Z,94.23
2022-09-20T05:22:26.757Z,93.67
2022-09-20T05:23:26.744Z,93.67
2022-09-20T05:24:26.734Z,94.08
2022-09-20T05:25:26.728Z,94.23
2022-09-20T05:26:26.732Z,94.08
2022-09-20T05:27:26.736Z,94.18
2022-09-20T05:28:26.714Z,94.08
2022-09-20T05:29:26.702Z,93.67
2022-09-20T05:30:26.721Z,93.67
2022-09-20T05:31:26.700Z,93.46
2022-09-20T05:32:26.702Z,93.46
2022-09-20T05:33:26.689Z,93.67
2022-09-20T05:34:26.677Z,95.62
2022-09-20T05:35:26.698Z,96.09
2022-09-20T05:36:29.152Z,93.99
2022-09-20T05:37:26.646Z,93.99
2022-09-20T05:38:26.741Z,94.87
2022-09-20T05:39:26.665Z,93.95
2022-09-20T05:40:26.697Z,92.16
2022-09-20T05:41:26.646Z,90.69
2022-09-20T05:42:26.646Z,89.04
2022-09-20T05:43:26.623Z,89.21
2022-09-20T05:44:26.606Z,88.24
2022-09-20T05:45:26.597Z,87.12
2022-09-20T05:46:26.595Z,86.67
2022-09-20T05:47:26.585Z,84.99
2022-09-20T05:48:26.627Z,84.63
2022-09-20T05:49:26.573Z,84.97
2022-09-20T05:50:26.573Z,85.58
2022-09-20T05:51:26.570Z,86.65
2022-09-20T05:52:26.591Z,87.10
2022-09-20T05:53:26.556Z,88.33
2022-09-20T05:54:26.577Z,88.12
2022-09-20T05:55:26.547Z,88.57
2022-09-20T05:56:26.545Z,88.92
2022-09-20T05:57:26.537Z,89.33
2022-09-20T05:58:26.534Z,89.64
2022-09-20T05:59:26.523Z,89.75
2022-09-20T06:00:26.536Z,90.46
2022-09-20T06:01:26.539Z,90.67
2022-09-20T06:02:26.599Z,90.46
2022-09-20T06:03:26.540Z,90.87
2022-09-20T06:04:26.492Z,91.33
2022-09-20T06:05:26.492Z,91.12
2022-09-20T06:06:31.728Z,91.12
2022-09-20T06:07:27.470Z,91.22
2022-09-20T06:08:26.462Z,91.74
2022-09-20T06:09:26.482Z,92.25
2022-09-20T06:10:26.459Z,91.84
2022-09-20T06:11:26.471Z,91.57
2022-09-20T06:12:26.447Z,91.99
2022-09-20T06:13:26.437Z,91.78
2022-09-20T06:14:26.437Z,92.25
2022-09-20T06:15:26.434Z,91.42
2022-09-20T06:16:26.463Z,91.63
2022-09-20T06:17:26.417Z,91.63
2022-09-20T06:18:26.417Z,91.74
2022-09-20T06:19:26.408Z,91.84
2022-09-20T06:20:26.577Z,91.63
2022-09-20T06:21:26.390Z,91.63
2022-09-20T06:22:26.378Z,91.90
2022-09-20T06:23:26.384Z,92.04
2022-09-20T06:24:26.410Z,91.94
2022-09-20T06:25:26.361Z,92.51
2022-09-20T06:26:26.357Z,92.41
2022-09-20T06:27:26.350Z,92.10
2022-09-20T06:28:26.355Z,92.00
2022-09-20T06:29:26.358Z,91.90
2022-09-20T06:30:26.437Z,92.00
2022-09-20T06:31:26.344Z,92.10
2022-09-20T06:32:26.328Z,92.21
2022-09-20T06:33:26.354Z,91.55
2022-09-20T06:34:26.312Z,92.47
2022-09-20T06:35:26.321Z,92.27
2022-09-20T06:36:26.299Z,92.06
2022-09-20T06:37:26.312Z,91.86
2022-09-20T06:38:26.298Z,92.06
2022-09-20T06:39:26.297Z,91.75
2022-09-20T06:40:26.384Z,91.55
2022-09-20T06:41:26.274Z,90.93
2022-09-20T06:42:27.266Z,91.20
2022-09-20T06:43:26.265Z,90.83
2022-09-20T06:44:26.251Z,90.93
2022-09-20T06:45:26.263Z,90.89
2022-09-20T06:46:26.245Z,91.50
2022-09-20T06:47:26.231Z,91.65
2022-09-20T06:48:26.252Z,90.93
2022-09-20T06:49:26.246Z,91.03
2022-09-20T06:50:26.213Z,91.65
2022-09-20T06:51:26.197Z,91.86
2022-09-20T06:52:26.203Z,92.06
2022-09-20T06:53:26.193Z,92.27
2022-09-20T06:54:26.185Z,92.16
2022-09-20T06:55:29.152Z,91.75
2022-09-20T06:56:26.174Z,91.75
2022-09-20T06:57:26.192Z,92.36
2022-09-20T06:58:26.171Z,92.27
2022-09-20T06:59:26.163Z,92.36
2022-09-20T07:00:26.161Z,91.44
2022-09-20T07:01:30.603Z,91.50
2022-09-20T07:02:26.162Z,91.09
2022-09-20T07:03:26.137Z,91.14
2022-09-20T07:04:26.121Z,91.03
2022-09-20T07:05:26.108Z,91.03
2022-09-20T07:06:26.099Z,90.89
2022-09-20T07:07:26.091Z,90.99
2022-09-20T07:08:26.111Z,91.65
2022-09-20T07:09:26.074Z,90.99
2022-09-20T07:10:26.079Z,91.71
2022-09-20T07:11:26.063Z,91.20
2022-09-20T07:12:26.103Z,91.50
2022-09-20T07:13:26.058Z,91.71
2022-09-20T07:14:26.047Z,90.99
2022-09-20T07:15:26.047Z,90.89
2022-09-20T07:16:26.084Z,91.20
2022-09-20T07:17:26.037Z,90.95
2022-09-20T07:18:26.046Z,90.79
2022-09-20T07:19:26.016Z,90.34
2022-09-20T07:20:26.009Z,90.84
2022-09-20T07:21:26.001Z,91.05
2022-09-20T07:22:26.001Z,91.05
2022-09-20T07:23:25.983Z,90.23
2022-09-20T07:24:26.001Z,90.54
2022-09-20T07:25:25.979Z,90.48
2022-09-20T07:26:25.974Z,90.54
2022-09-20T07:27:29.183Z,90.75
2022-09-20T07:28:25.962Z,90.84
2022-09-20T07:29:25.977Z,91.16
2022-09-20T07:30:25.937Z,91.26
2022-09-20T07:31:25.960Z,91.67
2022-09-20T07:32:25.935Z,91.11
2022-09-20T07:33:25.922Z,90.81
2022-09-20T07:34:25.922Z,90.91
2022-09-20T07:35:25.926Z,89.98
2022-09-20T07:36:25.903Z,91.01
2022-09-20T07:37:25.887Z,89.89
2022-09-20T07:38:25.890Z,88.62
2022-09-20T07:39:25.887Z,88.86
2022-09-20T07:40:25.906Z,89.12
2022-09-20T07:41:25.887Z,89.33
2022-09-20T07:42:25.864Z,88.31
2022-09-20T07:43:25.863Z,88.71
2022-09-20T07:44:25.869Z,89.27
2022-09-20T07:45:25.871Z,88.82
2022-09-20T07:46:25.836Z,88.65
2022-09-20T07:47:25.830Z,89.17
2022-09-20T07:48:25.861Z,88.71
2022-09-20T07:49:25.826Z,89.27
2022-09-20T07:50:25.819Z,89.17
2022-09-20T07:51:25.829Z,89.74
2022-09-20T07:52:25.803Z,89.17
2022-09-20T07:53:25.802Z,88.14
2022-09-20T07:54:25.796Z,88.00
2022-09-20T07:55:25.790Z,87.79
2022-09-20T07:56:25.802Z,88.00
2022-09-20T07:57:25.767Z,88.92
2022-09-20T07:58:25.769Z,89.27
2022-09-20T07:59:25.757Z,89.58
2022-09-20T08:00:25.751Z,89.06
2022-09-20T08:01:25.876Z,89.89
2022-09-20T08:02:25.799Z,90.19
2022-09-20T08:03:25.748Z,89.78
2022-09-20T08:04:25.759Z,90.60
2022-09-20T08:05:25.720Z,89.78
2022-09-20T08:06:25.713Z,89.78
2022-09-20T08:07:25.708Z,90.19
2022-09-20T08:08:25.702Z,89.58
2022-09-20T08:09:25.686Z,89.12
2022-09-20T08:10:25.705Z,89.12
2022-09-20T08:11:27.734Z,88.82
2022-09-20T08:14:26.679Z,90.05
2022-09-20T08:15:25.684Z,89.43
2022-09-20T08:16:25.727Z,88.92
2022-09-20T08:17:25.656Z,89.23
2022-09-20T08:18:25.647Z,90.25
2022-09-20T08:19:25.647Z,90.25
2022-09-20T08:20:25.649Z,89.03
2022-09-20T08:21:25.620Z,88.78
2022-09-20T08:22:25.611Z,88.06
2022-09-20T08:23:25.611Z,87.96
2022-09-20T08:24:25.610Z,88.17
2022-09-20T08:25:25.600Z,88.26
2022-09-20T08:26:25.621Z,87.71
2022-09-20T08:27:25.594Z,88.12
2022-09-20T08:28:25.579Z,87.92
2022-09-20T08:29:25.589Z,87.30
2022-09-20T08:30:27.612Z,86.79
2022-09-20T08:31:25.590Z,86.65
2022-09-20T08:32:25.558Z,86.76
2022-09-20T08:33:25.542Z,86.65
2022-09-20T08:34:25.581Z,86.20
2022-09-20T08:35:25.530Z,85.49
2022-09-20T08:36:25.551Z,86.10
2022-09-20T08:37:25.535Z,85.08
2022-09-20T08:40:25.611Z,86.51
2022-09-20T08:41:25.497Z,85.89
2022-09-20T08:42:25.497Z,85.08
2022-09-20T08:43:25.524Z,86.00
2022-09-20T08:44:25.476Z,85.45
2022-09-20T08:45:35.562Z,85.45
2022-09-20T08:46:26.502Z,84.83
2022-09-20T08:47:25.453Z,85.45
2022-09-20T08:48:25.459Z,84.94
2022-09-20T08:49:25.468Z,85.00
2022-09-20T08:50:25.469Z,84.94
2022-09-20T08:51:25.445Z,84.53
2022-09-20T08:52:25.431Z,84.01
2022-09-20T08:53:25.417Z,84.53
2022-09-20T08:54:25.400Z,84.22
2022-09-20T08:55:25.425Z,84.63
2022-09-20T08:56:25.399Z,85.45
2022-09-20T08:57:25.386Z,85.35
2022-09-20T08:58:25.403Z,86.16
2022-09-20T08:59:25.383Z,85.08
2022-09-20T09:00:25.386Z,84.42
2022-09-20T09:01:25.451Z,84.63
2022-09-20T09:02:25.440Z,84.88
2022-09-20T09:03:25.351Z,84.74
2022-09-20T09:04:25.350Z,85.59
2022-09-20T09:05:25.352Z,85.08
2022-09-20T09:06:25.365Z,85.08
2022-09-20T09:07:25.327Z,86.51
2022-09-20T09:08:25.351Z,86.61
2022-09-20T09:09:25.313Z,86.30
2022-09-20T09:10:25.315Z,87.12
2022-09-20T09:11:25.304Z,86.71
2022-09-20T09:12:25.304Z,86.61
2022-09-20T09:13:25.293Z,86.41
2022-09-20T09:14:25.313Z,86.67
2022-09-20T09:15:25.272Z,86.36
2022-09-20T09:16:31.834Z,86.57
2022-09-20T09:17:27.868Z,84.90
2022-09-20T09:18:31.733Z,84.90
2022-09-20T09:19:26.274Z,85.37
2022-09-20T09:20:25.237Z,84.25
2022-09-20T09:21:25.238Z,84.66
2022-09-20T09:22:25.232Z,85.27
2022-09-20T09:23:25.220Z,85.13
2022-09-20T09:24:25.215Z,84.51
2022-09-20T09:25:25.225Z,84.82
2022-09-20T09:26:25.234Z,83.49
2022-09-20T09:27:25.216Z,82.88
2022-09-20T09:28:25.192Z,81.12
2022-09-20T09:29:25.201Z,82.24
2022-09-20T09:30:25.195Z,82.61
2022-09-20T09:31:25.200Z,83.43
2022-09-20T09:32:25.168Z,84.25
2022-09-20T09:33:25.163Z,85.33
2022-09-20T09:34:25.166Z,85.02
2022-09-20T09:35:25.135Z,84.31
2022-09-20T09:36:25.141Z,82.94
2022-09-20T09:37:28.403Z,82.94
2022-09-20T09:38:25.126Z,83.01
2022-09-20T09:39:25.106Z,80.73
2022-09-20T09:40:25.159Z,80.99
2022-09-20T09:41:25.094Z,80.08
2022-09-20T09:42:25.105Z,80.38
2022-09-20T09:43:25.079Z,80.18
2022-09-20T09:44:25.077Z,80.38
2022-09-20T09:45:25.069Z,80.96
2022-09-20T09:46:25.079Z,80.76
2022-09-20T09:47:25.068Z,80.04
2022-09-20T09:48:25.059Z,80.31
2022-09-20T09:49:25.034Z,81.43
2022-09-20T09:50:25.058Z,77.26
2022-09-20T09:51:25.033Z,77.77
2022-09-20T09:52:25.012Z,77.56
2022-09-20T09:53:25.012Z,77.06
2022-09-20T09:54:25.011Z,77.16
2022-09-20T09:55:24.994Z,77.81
2022-09-20T09:56:24.976Z,77.60
2022-09-20T09:57:24.966Z,77.91
2022-09-20T09:58:24.986Z,77.40
2022-09-20T09:59:24.981Z,78.21
2022-09-20T10:00:24.960Z,79.13
2022-09-20T10:01:25.079Z,80.65
2022-09-20T10:02:25.041Z,80.79
2022-09-20T10:03:24.927Z,80.11
2022-09-20T10:04:24.941Z,80.24
2022-09-20T10:05:24.907Z,78.48
2022-09-20T10:06:24.910Z,77.77
2022-09-20T10:07:24.919Z,77.36
2022-09-20T10:08:24.892Z,77.16
2022-09-20T10:09:24.910Z,76.86
2022-09-20T10:10:24.873Z,76.89
2022-09-20T10:11:24.893Z,76.14
2022-09-20T10:12:24.893Z,75.26
2022-09-20T10:13:24.857Z,73.94
2022-09-20T10:14:24.846Z,74.89
2022-09-20T10:15:24.838Z,76.82
2022-09-20T10:16:24.883Z,75.37
2022-09-20T10:17:24.831Z,76.04
2022-09-20T10:18:24.819Z,76.01
2022-09-20T10:19:24.841Z,74.85
2022-09-20T10:20:24.806Z,75.16
2022-09-20T10:21:24.794Z,75.93
2022-09-20T10:22:24.819Z,74.88
2022-09-20T10:23:51.433Z,75.09
2022-09-20T10:24:25.791Z,72.17
2022-09-20T10:25:24.791Z,71.47
2022-09-20T10:26:24.761Z,72.92
2022-09-20T10:27:24.793Z,73.74
2022-09-20T10:28:24.763Z,74.85
2022-09-20T10:29:24.743Z,75.67
2022-09-20T10:30:24.746Z,76.98
2022-09-20T10:31:25.933Z,77.19
2022-09-20T10:32:24.720Z,74.31
2022-09-20T10:33:24.735Z,72.78
2022-09-20T10:34:24.736Z,73.29
2022-09-20T10:35:24.700Z,72.48
2022-09-20T10:36:24.712Z,75.43
2022-09-20T10:37:24.692Z,77.70
2022-09-20T10:38:24.667Z,77.70
2022-09-20T10:39:24.688Z,77.09
2022-09-20T10:40:24.695Z,76.98
2022-09-20T10:41:24.660Z,77.70
2022-09-20T10:42:24.646Z,79.72
2022-09-20T10:43:24.640Z,80.64
2022-09-20T10:44:24.641Z,79.93
2022-09-20T10:45:59.144Z,78.41
2022-09-20T10:46:33.189Z,79.32
2022-09-20T10:47:25.711Z,79.12
2022-09-20T10:48:24.613Z,75.76
2022-09-20T10:49:24.595Z,77.36
2022-09-20T10:50:24.586Z,77.86
2022-09-20T10:51:24.582Z,74.21
2022-09-20T10:52:24.609Z,75.63
2022-09-20T10:53:24.584Z,76.68
2022-09-20T10:54:24.557Z,76.24
2022-09-20T10:55:24.548Z,77.05
2022-09-20T10:56:24.544Z,77.90
2022-09-20T10:57:24.534Z,77.80
2022-09-20T10:58:24.522Z,75.90
2022-09-20T10:59:24.533Z,75.53
2022-09-20T11:00:24.515Z,72.45
2022-09-20T11:01:24.596Z,74.52
2022-09-20T11:02:24.522Z,77.10
2022-09-20T11:03:24.484Z,77.14
2022-09-20T11:04:24.484Z,78.16
2022-09-20T11:05:24.494Z,78.23
2022-09-20T11:06:24.467Z,78.16
2022-09-20T11:07:24.469Z,77.86
2022-09-20T11:08:24.460Z,78.77
2022-09-20T11:09:24.452Z,79.32
2022-09-20T11:10:24.466Z,81.23
2022-09-20T11:11:24.427Z,82.59
2022-09-20T11:12:24.448Z,83.20
2022-09-20T11:13:24.437Z,83.95
2022-09-20T11:14:24.426Z,83.51
2022-09-20T11:15:24.409Z,85.45
2022-09-20T11:16:24.471Z,86.77
2022-09-20T11:17:24.396Z,86.82
2022-09-20T11:18:24.383Z,87.90
2022-09-20T11:19:24.382Z,86.91
2022-09-20T11:20:24.382Z,86.51
2022-09-20T11:21:24.421Z,88.31
2022-09-20T11:22:24.360Z,86.67
2022-09-20T11:23:24.353Z,86.67
2022-09-20T11:24:24.349Z,84.94
2022-09-20T11:25:29.316Z,84.53
2022-09-20T11:26:25.402Z,86.53
2022-09-20T11:27:24.319Z,82.45
2022-09-20T11:28:24.319Z,84.39
2022-09-20T11:29:24.314Z,84.66
2022-09-20T11:30:24.320Z,83.43
2022-09-20T11:31:24.327Z,83.53
2022-09-20T11:32:24.307Z,84.66
2022-09-20T11:33:24.280Z,86.90
2022-09-20T11:34:24.316Z,85.37
2022-09-20T11:35:24.280Z,85.06
2022-09-20T11:36:24.283Z,84.11
2022-09-20T11:37:24.266Z,85.13
2022-09-20T11:38:24.263Z,85.90
2022-09-20T11:39:24.260Z,84.72
2022-09-20T11:40:24.307Z,82.84
2022-09-20T11:41:24.236Z,82.03
2022-09-20T11:42:24.265Z,80.16
2022-09-20T11:43:24.227Z,80.77
2022-09-20T11:44:24.252Z,79.91
2022-09-20T11:45:28.248Z,78.56
2022-09-20T11:46:24.237Z,78.42
2022-09-20T11:47:49.953Z,79.54
2022-09-20T11:48:25.188Z,80.36
2022-09-20T11:49:24.180Z,81.17
2022-09-20T11:50:24.180Z,82.46
2022-09-20T11:51:24.166Z,79.47
2022-09-20T11:52:24.180Z,79.27
2022-09-20T11:53:24.161Z,78.35
2022-09-20T11:54:24.150Z,77.40
2022-09-20T11:55:24.131Z,78.21
2022-09-20T11:56:24.137Z,79.63
2022-09-20T11:57:24.147Z,79.23
2022-09-20T11:58:24.127Z,79.84
2022-09-20T11:59:24.115Z,78.68
2022-09-20T12:00:24.108Z,77.20
2022-09-20T12:01:28.078Z,76.86
2022-09-20T12:02:24.177Z,77.67
2022-09-20T12:03:24.142Z,77.67
2022-09-20T12:04:33.215Z,76.34
2022-09-20T12:05:25.070Z,77.33
2022-09-20T12:06:24.060Z,76.98
2022-09-20T12:07:24.079Z,77.15
2022-09-20T12:08:24.086Z,78.06
2022-09-20T12:09:24.045Z,76.61
2022-09-20T12:10:24.039Z,73.77
2022-09-20T12:11:24.034Z,73.66
2022-09-20T12:12:24.027Z,73.97
2022-09-20T12:13:24.015Z,74.27
2022-09-20T12:14:24.024Z,75.49
2022-09-20T12:15:23.998Z,76.40
2022-09-20T12:16:24.014Z,74.68
2022-09-20T12:17:23.982Z,72.34
2022-09-20T12:18:23.992Z,72.65
2022-09-20T12:19:23.989Z,73.26
2022-09-20T12:20:23.963Z,72.85
2022-09-20T12:21:23.975Z,74.34
2022-09-20T12:22:23.956Z,73.02
2022-09-20T12:23:23.986Z,71.88
2022-09-20T12:24:23.934Z,71.88
2022-09-20T12:25:23.919Z,73.46
2022-09-20T12:26:23.928Z,74.37
2022-09-20T12:27:23.918Z,72.96
2022-09-20T12:28:23.908Z,71.91
2022-09-20T12:29:23.921Z,70.65
2022-09-20T12:30:23.893Z,71.26
2022-09-20T12:31:23.915Z,70.93
2022-09-20T12:32:23.879Z,69.18
2022-09-20T12:33:23.867Z,67.46
2022-09-20T12:34:23.867Z,69.89
2022-09-20T12:35:23.868Z,70.15
2022-09-20T12:36:23.844Z,70.86
2022-09-20T12:37:23.834Z,69.04
2022-09-20T12:38:23.835Z,68.10
2022-09-20T12:39:28.905Z,68.00
2022-09-20T12:40:24.871Z,69.42
2022-09-20T12:41:28.580Z,67.83
2022-09-20T12:42:24.809Z,67.12
2022-09-20T12:43:23.795Z,67.80
2022-09-20T12:44:23.796Z,68.84
2022-09-20T12:45:23.839Z,66.72
2022-09-20T12:46:23.792Z,68.03
2022-09-20T12:47:23.759Z,71.50
2022-09-20T12:48:23.751Z,71.37
2022-09-20T12:49:23.781Z,69.34
2022-09-20T12:50:23.740Z,70.32
2022-09-20T12:51:23.730Z,70.86
2022-09-20T12:52:23.729Z,68.16
2022-09-20T12:53:23.715Z,69.68
2022-09-20T12:54:23.718Z,72.08
2022-09-20T12:55:23.728Z,72.81
2022-09-20T12:56:23.716Z,71.80
2022-09-20T12:57:23.694Z,71.30